Time;durP1;ratioP1;P1;durP2;ratioP2;P2;SDS_P1;SDS_P2;PMS_P1;PMS_P2;Temp;Humidity;BMP_temperature;BMP_pressure;BME280_temperature;BME280_humidity;BME280_pressure;Samples;Min_cycle;Max_cycle;Signal;HPM_P1;HPM_P2
2023/04/20 00:01:53;;;;;;;38.70;9.20;;;;;;;9.08;87.57;99180.88;105266;1269;75023;-81
2023/04/20 00:04:22;;;;;;;29.90;9.10;;;;;;;8.99;87.77;99180.58;105275;1268;69661;-82
2023/04/20 00:06:50;;;;;;;42.30;8.70;;;;;;;8.99;88.56;99177.26;105321;1268;73195;-81
2023/04/20 00:09:19;;;;;;;37.90;8.40;;;;;;;9.02;88.38;99175.42;105350;1267;62409;-81
2023/04/20 00:11:47;;;;;;;38.30;9.80;;;;;;;8.98;88.72;99175.31;105359;1265;61332;-81
2023/04/20 00:14:15;;;;;;;38.00;9.90;;;;;;;8.84;91.14;99170.56;105428;1271;74343;-81
2023/04/20 00:16:44;;;;;;;26.60;9.20;;;;;;;8.82;91.74;99170.92;105302;1265;68220;-81
2023/04/20 00:19:12;;;;;;;29.20;8.50;;;;;;;8.84;92.56;99168.23;105389;1270;72857;-81
2023/04/20 00:21:40;;;;;;;37.80;8.60;;;;;;;8.87;92.58;99168.04;105292;1278;61272;-80
2023/04/20 00:24:08;;;;;;;44.70;7.30;;;;;;;8.91;92.35;99165.34;105324;1269;61381;-82
2023/04/20 00:26:36;;;;;;;25.50;6.70;;;;;;;8.89;92.61;99167.20;105200;1271;73815;-82
2023/04/20 00:29:05;;;;;;;29.40;7.00;;;;;;;8.89;93.05;99166.14;105180;1269;69433;-82
2023/04/20 00:31:33;;;;;;;34.50;6.20;;;;;;;8.94;93.36;99167.15;105055;1270;71022;-82
2023/04/20 00:34:01;;;;;;;24.40;6.50;;;;;;;9.05;92.16;99169.18;105276;1269;61330;-80
2023/04/20 00:36:30;;;;;;;19.40;7.20;;;;;;;9.01;92.39;99167.10;105351;1270;61356;-80
2023/04/20 00:38:58;;;;;;;38.00;6.30;;;;;;;9.14;92.19;99168.19;105400;1269;75744;-81
2023/04/20 00:41:28;;;;;;;19.40;5.20;;;;;;;9.14;92.29;99169.66;105310;1271;69072;-81
2023/04/20 00:44:15;;;;;;;19.50;4.90;;;;;;;9.29;90.18;99171.05;105274;1267;73699;-81
2023/04/20 00:46:43;;;;;;;18.20;5.70;;;;;;;9.24;89.45;99167.27;105312;1265;62670;-80
2023/04/20 00:49:11;;;;;;;22.00;6.40;;;;;;;9.24;89.86;99165.30;105386;1265;61640;-81
2023/04/20 00:51:39;;;;;;;19.60;5.80;;;;;;;9.47;87.66;99163.77;105250;1269;74455;-81
2023/04/20 00:54:07;;;;;;;28.90;6.80;;;;;;;9.54;86.30;99160.61;105196;1280;68872;-81
2023/04/20 00:56:37;;;;;;;17.40;6.00;;;;;;;9.71;84.75;99158.96;105188;1267;72063;-79
2023/04/20 00:59:07;;;;;;;23.80;6.00;;;;;;;9.54;85.57;99156.27;104949;1271;62922;-82
2023/04/20 01:01:36;;;;;;;;;;;;;;;9.76;83.45;99153.41;106725;1265;60508;-81
2023/04/20 01:04:04;;;;;;;;;;;;;;;9.80;82.69;99146.05;107601;1267;1002345;-82
2023/04/20 01:06:33;;;;;;;28.90;6.20;;;;;;;9.95;81.98;99146.31;106025;1269;68764;-83
2023/04/20 01:09:01;;;;;;;22.30;5.20;;;;;;;10.02;81.72;99150.21;105230;1265;73928;-81
2023/04/20 01:11:30;;;;;;;23.90;6.70;;;;;;;9.81;83.11;99144.13;105176;1270;61182;-81
2023/04/20 01:13:58;;;;;;;24.40;7.90;;;;;;;9.99;82.03;99141.34;105310;1272;61513;-80
2023/04/20 01:16:27;;;;;;;20.10;7.80;;;;;;;9.83;81.48;99142.42;105079;1272;74621;-81
2023/04/20 01:18:56;;;;;;;21.40;7.60;;;;;;;9.88;80.78;99140.36;105031;1271;69897;-82
2023/04/20 01:21:24;;;;;;;;;;;;;;;10.00;79.84;99140.12;105257;1269;71808;-82
2023/04/20 01:23:52;;;;;;;22.70;6.90;;;;;;;10.12;79.68;99136.95;105250;1268;61211;-82
2023/04/20 01:26:22;;;;;;;20.50;7.30;;;;;;;10.04;79.62;99136.38;105287;1265;61877;-82
2023/04/20 01:28:51;;;;;;;19.20;6.40;;;;;;;9.88;81.54;99133.29;105027;1272;74403;-81
2023/04/20 01:31:20;;;;;;;26.10;7.60;;;;;;;10.03;80.42;99136.16;105323;1266;69836;-81
2023/04/20 01:33:50;;;;;;;22.80;7.30;;;;;;;9.91;81.28;99136.84;105301;1278;73644;-82
2023/04/20 01:36:21;;;;;;;15.60;6.30;;;;;;;10.04;79.93;99133.65;105283;1266;61868;-81
2023/04/20 01:38:49;;;;;;;23.90;6.60;;;;;;;10.18;79.03;99137.52;105493;1265;61262;-81
2023/04/20 01:41:18;;;;;;;24.50;6.10;;;;;;;10.23;78.33;99135.79;105242;1270;73764;-81
2023/04/20 01:43:46;;;;;;;;;;;;;;;10.06;79.33;99132.31;105329;1270;68057;-82
2023/04/20 01:46:14;;;;;;;21.10;5.80;;;;;;;9.96;80.23;99137.36;105107;1271;72890;-80
2023/04/20 01:48:42;;;;;;;21.20;6.80;;;;;;;9.93;80.52;99133.59;105044;1270;61507;-80
2023/04/20 01:51:10;;;;;;;22.60;6.40;;;;;;;9.85;80.56;99129.73;104995;1270;61389;-81
2023/04/20 01:53:39;;;;;;;27.00;6.00;;;;;;;9.87;80.17;99125.78;105292;1270;75480;-82
2023/04/20 01:56:08;;;;;;;31.80;6.40;;;;;;;9.90;80.69;99125.84;105285;1270;70008;-81
2023/04/20 01:58:36;;;;;;;18.80;5.80;;;;;;;9.90;80.23;99128.20;105139;1266;72714;-81
2023/04/20 02:01:04;;;;;;;29.40;7.10;;;;;;;9.90;79.77;99124.60;105185;1266;61936;-82
2023/04/20 02:03:33;;;;;;;20.60;6.50;;;;;;;9.88;80.31;99117.20;105287;1267;61386;-82
2023/04/20 02:06:03;;;;;;;30.40;7.20;;;;;;;9.84;80.33;99119.65;105237;1271;74860;-81
2023/04/20 02:08:31;;;;;;;;;;;;;;;10.03;78.88;99115.30;105365;1269;69551;-80
2023/04/20 02:11:00;;;;;;;31.90;6.60;;;;;;;9.96;79.24;99109.16;104902;1267;72907;-80
2023/04/20 02:13:29;;;;;;;19.60;7.10;;;;;;;9.99;79.54;99107.35;105231;1272;63157;-81
2023/04/20 02:15:59;;;;;;;15.50;6.30;;;;;;;9.94;78.93;99109.67;105182;1270;61285;-81
2023/04/20 02:18:29;;;;;;;26.00;6.50;;;;;;;9.97;78.36;99113.13;105188;1270;75781;-81
2023/04/20 02:20:58;;;;;;;15.60;5.80;;;;;;;10.06;78.21;99115.96;105345;1270;68580;-82
2023/04/20 02:23:26;;;;;;;22.60;6.60;;;;;;;9.85;78.46;99115.99;105298;1271;73742;-81
2023/04/20 02:25:55;;;;;;;30.50;6.80;;;;;;;9.81;80.21;99120.86;105169;1269;61245;-81
2023/04/20 02:28:23;;;;;;;18.30;6.10;;;;;;;9.88;79.74;99117.63;105124;1266;61285;-82
2023/04/20 02:30:51;;;;;;;28.20;6.20;;;;;;;9.78;79.94;99116.02;105194;1269;72886;-82
2023/04/20 02:33:20;;;;;;;24.70;7.70;;;;;;;9.64;81.12;99110.63;105121;1271;68763;-81
2023/04/20 02:35:49;;;;;;;26.60;7.00;;;;;;;9.65;81.82;99111.02;105144;1270;72942;-82
2023/04/20 02:38:17;;;;;;;25.90;6.20;;;;;;;9.71;80.81;99108.89;105101;1270;61303;-82
2023/04/20 02:40:45;;;;;;;26.10;5.60;;;;;;;9.77;80.40;99107.48;105137;1266;61224;-83
2023/04/20 02:43:14;;;;;;;29.40;6.10;;;;;;;9.76;80.06;99101.77;105178;1270;75171;-83
2023/04/20 02:45:42;;;;;;;;;;;;;;;9.78;80.05;99105.63;105197;1272;67647;-82
2023/04/20 02:48:12;;;;;;;27.80;5.60;;;;;;;9.90;77.60;99100.87;105129;1270;72019;-82
2023/04/20 02:50:41;;;;;;;21.60;6.70;;;;;;;9.92;77.03;99101.72;105024;1272;61275;-82
2023/04/20 02:53:16;;;;;;;15.80;5.00;;;;;;;9.84;78.84;99096.22;105244;1269;61276;-81
2023/04/20 02:55:47;;;;;;;18.60;5.40;;;;;;;10.01;76.57;99093.36;105134;1271;74676;-81
2023/04/20 02:58:25;;;;;;;26.30;6.20;;;;;;;9.84;77.92;99094.19;105207;1269;69510;-82
2023/04/20 03:01:19;;;;;;;16.90;5.50;;;;;;;9.77;79.45;99093.08;104984;1270;73699;-83
2023/04/20 03:03:48;;;;;;;23.80;5.70;;;;;;;9.80;78.83;99092.88;105298;1270;61183;-82
2023/04/20 03:06:17;;;;;;;18.30;4.90;;;;;;;9.82;78.61;99090.25;105308;1271;61305;-82
2023/04/20 03:08:49;;;;;;;14.40;4.80;;;;;;;9.86;77.91;99090.17;105296;1267;99860;-81
2023/04/20 03:11:44;;;;;;;30.00;6.70;;;;;;;9.81;78.75;99093.52;105094;1271;69831;-82
2023/04/20 03:14:16;;;;;;;23.70;6.20;;;;;;;9.86;77.90;99089.59;105117;1272;73790;-82
2023/04/20 03:16:45;;;;;;;14.60;5.50;;;;;;;9.94;77.67;99094.17;105276;1265;62187;-83
2023/04/20 03:19:13;;;;;;;21.10;6.20;;;;;;;10.02;75.65;99091.05;105321;1265;61241;-83
2023/04/20 03:21:43;;;;;;;17.40;5.00;;;;;;;10.12;75.03;99097.17;105339;1271;75814;-85
2023/04/20 03:24:11;;;;;;;19.40;5.80;;;;;;;10.08;75.76;99092.80;105229;1270;67829;-82
2023/04/20 03:26:40;;;;;;;18.40;5.70;;;;;;;10.11;75.67;99096.20;105308;1267;73088;-83
2023/04/20 03:29:14;;;;;;;26.70;6.80;;;;;;;10.18;75.98;99095.15;105262;1267;61183;-83
2023/04/20 03:31:45;;;;;;;28.60;6.10;;;;;;;10.22;75.39;99094.73;105511;1266;61290;-83
2023/04/20 03:34:13;;;;;;;20.20;6.40;;;;;;;10.12;76.00;99093.85;105231;1267;74289;-83
2023/04/20 03:36:42;;;;;;;18.80;5.20;;;;;;;10.11;76.15;99090.29;105173;1270;68129;-84
2023/04/20 03:39:10;;;;;;;18.80;5.80;;;;;;;10.09;75.75;99090.49;104949;1271;71933;-85
2023/04/20 03:41:38;;;;;;;26.50;7.40;;;;;;;9.96;77.19;99094.46;105329;1265;61224;-85
2023/04/20 03:44:06;;;;;;;15.70;5.30;;;;;;;10.05;76.27;99087.86;105142;1270;61362;-83
2023/04/20 03:46:35;;;;;;;11.40;5.80;;;;;;;10.12;76.46;99093.30;105295;1270;73435;-84
2023/04/20 03:49:03;;;;;;;15.70;5.10;;;;;;;10.17;75.44;99095.58;105356;1270;70030;-87
2023/04/20 03:51:32;;;;;;;10.80;6.20;;;;;;;10.19;75.83;99093.50;105201;1271;72332;-84
2023/04/20 03:54:01;;;;;;;25.00;5.20;;;;;;;10.27;74.72;99095.03;105494;1267;61306;-84
2023/04/20 03:56:29;;;;;;;;;;;;;;;10.34;74.59;99097.65;105417;1267;61292;-83
2023/04/20 03:58:57;;;;;;;;;;;;;;;10.35;73.35;99097.49;105435;1265;75547;-84
2023/04/20 04:01:27;;;;;;;10.60;4.30;;;;;;;10.21;74.29;99093.66;105548;1269;68893;-84
2023/04/20 04:03:55;;;;;;;35.40;6.20;;;;;;;10.23;73.27;99087.66;105223;1269;72695;-84
2023/04/20 04:06:23;;;;;;;;;;;;;;;10.42;72.76;99088.67;105376;1267;61389;-86
2023/04/20 04:08:51;;;;;;;20.90;5.20;;;;;;;10.34;72.93;99086.05;105337;1269;61376;-85
2023/04/20 04:11:20;;;;;;;12.40;5.30;;;;;;;10.24;73.26;99082.61;105124;1270;75397;-83
2023/04/20 04:13:48;;;;;;;15.30;4.90;;;;;;;10.29;72.44;99083.30;108435;1267;69876;-83
2023/04/20 04:16:16;;;;;;;12.10;4.80;;;;;;;10.30;72.00;99083.41;107936;1265;72676;-84
2023/04/20 04:18:45;;;;;;;22.10;5.10;;;;;;;10.39;71.19;99085.54;105533;1266;61340;-84
2023/04/20 04:21:14;;;;;;;19.60;6.20;;;;;;;10.31;71.93;99087.06;105222;1265;61310;-84
2023/04/20 04:23:46;;;;;;;20.40;4.20;;;;;;;10.37;72.29;99090.90;105417;1270;75208;-84
2023/04/20 04:26:23;;;;;;;21.20;5.80;;;;;;;10.30;71.92;99088.74;105597;1267;68116;-84
2023/04/20 04:28:52;;;;;;;24.00;7.20;;;;;;;10.33;71.54;99086.33;105512;1267;71999;-82
2023/04/20 04:31:23;;;;;;;18.10;5.30;;;;;;;10.35;71.28;99088.69;105412;1267;61252;-82
2023/04/20 04:33:51;;;;;;;13.20;5.90;;;;;;;10.40;70.26;99087.90;105556;1265;61226;-83
2023/04/20 04:36:26;;;;;;;13.20;6.40;;;;;;;10.43;69.76;99086.73;105312;1267;73953;-82
2023/04/20 04:38:56;;;;;;;13.10;5.10;;;;;;;10.42;71.02;99089.04;105399;1270;69676;-82
2023/04/20 04:41:25;;;;;;;10.40;4.70;;;;;;;10.40;70.64;99089.47;105295;1270;71990;-81
2023/04/20 04:43:54;;;;;;;23.10;5.30;;;;;;;10.47;70.00;99087.39;105430;1267;61235;-84
2023/04/20 04:46:29;;;;;;;13.00;5.20;;;;;;;10.54;69.00;99086.34;105160;1267;61415;-82
2023/04/20 04:48:59;;;;;;;;;;;;;;;10.71;69.12;99091.41;105369;1270;74605;-82
2023/04/20 04:51:28;;;;;;;12.50;4.50;;;;;;;11.00;67.35;99094.25;105530;1267;69831;-83
2023/04/20 04:53:56;;;;;;;12.30;5.10;;;;;;;11.06;66.14;99095.22;105620;1268;73208;-81
2023/04/20 04:56:28;;;;;;;11.60;4.60;;;;;;;11.22;64.79;99093.39;105676;1266;61264;-84
2023/04/20 04:58:56;;;;;;;11.10;5.00;;;;;;;11.13;64.47;99085.77;105472;1266;61173;-82
2023/04/20 05:01:24;;;;;;;10.70;5.60;;;;;;;11.11;64.46;99086.47;105401;1270;75148;-83
2023/04/20 05:03:53;;;;;;;8.60;4.50;;;;;;;11.15;65.28;99092.64;105328;1267;67953;-84
2023/04/20 05:06:21;;;;;;;27.40;12.20;;;;;;;11.29;63.02;99089.86;105408;1270;73390;-82
2023/04/20 05:08:50;;;;;;;33.60;12.10;;;;;;;11.20;63.43;99094.46;105379;1267;61343;-81
2023/04/20 05:11:18;;;;;;;10.20;5.80;;;;;;;11.22;63.27;99094.80;105654;1265;61260;-81
2023/04/20 05:13:47;;;;;;;10.60;5.90;;;;;;;11.14;63.40;99091.83;105294;1268;73648;-85
2023/04/20 05:16:15;;;;;;;12.30;5.30;;;;;;;11.31;62.77;99091.63;105579;1265;67869;-83
2023/04/20 05:18:43;;;;;;;;;;;;;;;11.43;62.51;99088.39;106153;1267;71381;-84
2023/04/20 05:21:12;;;;;;;14.30;5.30;;;;;;;11.49;60.78;99088.60;105529;1266;61218;-83
2023/04/20 05:23:41;;;;;;;17.90;6.70;;;;;;;11.50;60.45;99090.67;105626;1265;61425;-83
2023/04/20 05:26:09;;;;;;;20.50;5.50;;;;;;;11.54;61.05;99088.53;105635;1268;73604;-83
2023/04/20 05:28:38;;;;;;;14.40;6.70;;;;;;;11.55;60.83;99083.16;105401;1272;68578;-84
2023/04/20 05:31:06;;;;;;;17.50;5.80;;;;;;;11.64;60.47;99085.72;105474;1265;71676;-84
2023/04/20 05:33:35;;;;;;;16.60;5.90;;;;;;;11.70;59.46;99084.79;105421;1268;61123;-83
2023/04/20 05:36:07;;;;;;;;;;;;;;;11.75;59.43;99085.11;105567;1267;61274;-82
2023/04/20 05:38:35;;;;;;;9.40;5.40;;;;;;;11.71;59.00;99085.17;105505;1265;74769;-86
2023/04/20 05:41:03;;;;;;;5.00;4.10;;;;;;;11.70;59.17;99085.70;105563;1269;67060;-83
2023/04/20 05:43:32;;;;;;;12.00;5.70;;;;;;;11.66;59.35;99089.96;105644;1269;73858;-84
2023/04/20 05:46:01;;;;;;;14.40;5.10;;;;;;;11.71;59.59;99089.58;105573;1268;61464;-82
2023/04/20 05:48:30;;;;;;;10.40;4.70;;;;;;;11.65;59.73;99088.19;105424;1270;61459;-83
2023/04/20 05:50:58;;;;;;;14.30;5.80;;;;;;;11.59;58.74;99095.23;105388;1264;75187;-83
2023/04/20 05:53:26;;;;;;;13.20;5.30;;;;;;;11.76;58.83;99099.52;105506;1269;69112;-80
2023/04/20 05:55:54;;;;;;;14.10;6.00;;;;;;;11.80;58.29;99094.55;105515;1267;72804;-83
2023/04/20 05:58:23;;;;;;;20.10;5.80;;;;;;;11.76;58.77;99090.05;105612;1266;62324;-82
2023/04/20 06:00:53;;;;;;;18.40;5.60;;;;;;;11.81;57.79;99092.84;106185;1265;61255;-84
2023/04/20 06:03:21;;;;;;;16.60;5.20;;;;;;;11.91;58.77;99088.80;105896;1269;74275;-84
2023/04/20 06:05:50;;;;;;;13.30;6.20;;;;;;;11.87;59.29;99086.27;106573;1266;67335;-83
2023/04/20 06:08:18;;;;;;;;;;;;;;;11.87;58.27;99083.20;106041;1269;73034;-86
2023/04/20 06:10:53;;;;;;;8.50;4.40;;;;;;;11.89;57.69;99082.67;106011;1268;61434;-83
2023/04/20 06:13:22;;;;;;;14.40;6.20;;;;;;;11.89;57.79;99086.75;105378;1265;61269;-85
2023/04/20 06:15:51;;;;;;;19.30;6.70;;;;;;;12.01;57.27;99086.14;105803;1266;74475;-82
2023/04/20 06:18:20;;;;;;;36.70;10.20;;;;;;;12.02;58.10;99088.55;105958;1265;69821;-82
2023/04/20 06:20:48;;;;;;;18.80;6.10;;;;;;;11.93;58.16;99091.52;105954;1265;73015;-83
2023/04/20 06:23:18;;;;;;;20.00;6.50;;;;;;;11.85;58.93;99091.10;106416;1265;61168;-84
2023/04/20 06:25:46;;;;;;;28.30;10.80;;;;;;;11.80;57.94;99090.54;106376;1269;61182;-82
2023/04/20 06:28:15;;;;;;;;;;;;;;;11.84;58.48;99096.39;105728;1264;74750;-82
2023/04/20 06:30:43;;;;;;;16.80;6.20;;;;;;;11.82;58.72;99096.27;105783;1264;68071;-82
2023/04/20 06:33:16;;;;;;;11.00;5.60;;;;;;;11.88;57.34;99095.58;106039;1265;72908;-84
2023/04/20 06:35:44;;;;;;;10.50;6.20;;;;;;;11.83;57.84;99098.15;106004;1265;61436;-79
2023/04/20 06:38:12;;;;;;;7.20;4.00;;;;;;;11.79;58.54;99095.84;105998;1269;61237;-84
2023/04/20 06:40:41;;;;;;;18.70;6.90;;;;;;;11.71;58.75;99097.10;105833;1265;73417;-81
2023/04/20 06:43:09;;;;;;;10.50;5.20;;;;;;;11.90;58.85;99100.75;105997;1267;67221;-82
2023/04/20 06:45:38;;;;;;;11.10;5.10;;;;;;;11.83;59.62;99103.42;106061;1265;73482;-81
2023/04/20 06:48:07;;;;;;;25.40;8.70;;;;;;;11.85;60.08;99106.11;105640;1266;61288;-82
2023/04/20 06:50:55;;;;;;;19.30;6.60;;;;;;;11.84;61.43;99107.36;105456;1270;61163;-81
2023/04/20 06:53:23;;;;;;;9.40;3.10;;;;;;;11.88;62.34;99111.13;106127;1264;74633;-81
2023/04/20 06:55:56;;;;;;;20.30;7.90;;;;;;;11.71;63.59;99106.19;105524;1265;68629;-81
2023/04/20 06:59:05;;;;;;;22.20;6.70;;;;;;;11.62;64.70;99106.69;105356;1269;72568;-82
2023/04/20 07:01:33;;;;;;;15.50;6.20;;;;;;;11.61;66.42;99109.70;105582;1270;61388;-83
2023/04/20 07:04:01;;;;;;;17.70;6.60;;;;;;;11.60;66.88;99109.27;105412;1267;61139;-81
2023/04/20 07:06:32;;;;;;;20.10;5.80;;;;;;;11.56;67.95;99107.84;105453;1267;73813;-81
2023/04/20 07:09:00;;;;;;;22.20;8.90;;;;;;;11.65;68.07;99117.66;105271;1267;68603;-80
2023/04/20 07:11:28;;;;;;;14.70;5.00;;;;;;;11.69;68.81;99117.38;105456;1270;73809;-84
2023/04/20 07:13:56;;;;;;;;;;;;;;;11.66;70.58;99117.70;105331;1267;60575;-83
2023/04/20 07:16:25;;;;;;;9.80;5.20;;;;;;;11.51;73.35;99110.47;105440;1267;61323;-81
2023/04/20 07:18:53;;;;;;;17.70;7.80;;;;;;;11.59;74.29;99123.95;105722;1265;74749;-79
2023/04/20 07:21:24;;;;;;;13.30;4.90;;;;;;;11.63;75.77;99122.45;105558;1265;67936;-85
2023/04/20 07:23:52;;;;;;;12.00;5.10;;;;;;;11.52;80.41;99123.27;105488;1267;72939;-82
2023/04/20 07:26:20;;;;;;;24.90;6.70;;;;;;;11.47;86.66;99114.02;108162;1265;60270;-80
2023/04/20 07:28:48;;;;;;;17.70;5.20;;;;;;;11.52;92.29;99113.27;108233;1265;60045;-81
2023/04/20 07:31:17;;;;;;;25.80;5.20;;;;;;;11.53;97.37;99117.36;105673;1266;73470;-82
2023/04/20 07:33:45;;;;;;;;;;;;;;;11.49;100.00;99117.77;105783;1269;70389;-80
2023/04/20 07:36:13;;;;;;;14.00;5.50;;;;;;;11.54;100.00;99111.00;105586;1265;73549;-83
2023/04/20 07:38:42;;;;;;;13.10;4.70;;;;;;;11.33;100.00;99115.16;105838;1265;62573;-83
2023/04/20 07:41:10;;;;;;;32.40;9.70;;;;;;;11.60;100.00;99114.17;105537;1266;61265;-80
2023/04/20 07:43:38;;;;;;;28.60;8.00;;;;;;;11.89;100.00;99115.96;105447;1269;74273;-81
2023/04/20 07:46:09;;;;;;;20.80;6.90;;;;;;;11.83;100.00;99117.64;105353;1269;67796;-77
2023/04/20 07:48:37;;;;;;;16.80;8.10;;;;;;;12.04;100.00;99110.86;105513;1270;73315;-82
2023/04/20 07:51:05;;;;;;;36.50;11.60;;;;;;;12.22;100.00;99108.55;105493;1265;62861;-80
2023/04/20 07:53:34;;;;;;;19.50;7.00;;;;;;;12.56;95.79;99101.71;105472;1265;61151;-81
2023/04/20 07:56:03;;;;;;;25.10;6.40;;;;;;;12.96;90.69;99100.11;105324;1269;75715;-82
2023/04/20 07:58:31;;;;;;;19.50;7.10;;;;;;;13.26;87.65;99095.75;105202;1265;68816;-82
2023/04/20 08:00:59;;;;;;;23.80;6.60;;;;;;;13.40;84.40;99090.95;105347;1265;73059;-81
2023/04/20 08:03:29;;;;;;;19.50;5.40;;;;;;;13.40;83.30;99094.10;105434;1270;62318;-80
2023/04/20 08:05:58;;;;;;;31.10;7.50;;;;;;;13.57;84.15;99094.31;105448;1264;61413;-81
2023/04/20 08:08:26;;;;;;;29.80;5.90;;;;;;;13.97;79.70;99091.36;105431;1265;72633;-81
2023/04/20 08:10:57;;;;;;;16.40;4.70;;;;;;;13.92;79.60;99082.24;105379;1265;69564;-81
2023/04/20 08:13:28;;;;;;;26.20;7.10;;;;;;;13.89;80.54;99091.39;105353;1270;72547;-82
2023/04/20 08:15:56;;;;;;;;;;;;;;;14.09;80.33;99087.67;105336;1265;61357;-81
2023/04/20 08:18:24;;;;;;;;;;;;;;;14.06;80.78;99084.19;105494;1265;61370;-79
2023/04/20 08:20:52;;;;;;;30.20;6.40;;;;;;;13.97;82.11;99086.72;105353;1270;75436;-81
2023/04/20 08:23:26;;;;;;;18.50;6.20;;;;;;;13.74;81.86;99083.02;105357;1266;69895;-80
2023/04/20 08:25:55;;;;;;;21.60;5.70;;;;;;;13.69;83.21;99086.04;105341;1265;72499;-78
2023/04/20 08:28:24;;;;;;;23.00;5.90;;;;;;;13.68;83.26;99092.91;105382;1266;61504;-80
2023/04/20 08:31:01;;;;;;;23.20;6.00;;;;;;;13.52;83.61;99088.38;105389;1265;61205;-80
2023/04/20 08:33:30;;;;;;;27.50;5.00;;;;;;;13.29;84.29;99089.44;105541;1265;74648;-79
2023/04/20 08:35:58;;;;;;;25.90;7.10;;;;;;;13.29;84.20;99091.53;105481;1270;68362;-80
2023/04/20 08:38:27;;;;;;;21.20;5.40;;;;;;;13.21;83.84;99088.57;105377;1270;72786;-83
2023/04/20 08:41:01;;;;;;;27.20;6.50;;;;;;;13.05;84.32;99093.59;105555;1264;61715;-79
2023/04/20 08:43:30;;;;;;;17.00;6.00;;;;;;;12.83;87.66;99093.86;105573;1269;61208;-83
2023/04/20 08:46:00;;;;;;;28.30;8.40;;;;;;;12.79;89.73;99098.61;105680;1267;74597;-79
2023/04/20 08:49:45;;;;;;;20.80;5.80;;;;;;;12.39;92.65;99085.69;102756;1291;617107;-81
2023/04/20 08:52:12;;;;;;;19.80;5.80;;;;;;;12.55;89.86;99088.74;105222;1269;59311;-83
2023/04/20 08:54:39;;;;;;;27.60;6.00;;;;;;;12.42;91.74;99095.33;105380;1267;59316;-83
2023/04/20 08:57:24;;;;;;;20.50;6.70;;;;;;;12.05;95.61;99084.77;105328;1272;72241;-83
2023/04/20 08:59:51;;;;;;;19.10;6.00;;;;;;;11.92;98.21;99086.81;104907;1276;67698;-79
2023/04/20 09:02:18;;;;;;;16.40;5.70;;;;;;;11.89;97.89;99079.83;105660;1262;137230;-78
2023/04/20 09:04:47;;;;;;;25.60;7.60;;;;;;;11.97;96.54;99080.52;106087;1257;61890;-82
2023/04/20 09:07:18;;;;;;;20.20;6.90;;;;;;;11.79;98.88;99075.80;106152;1263;60456;-83
2023/04/20 09:09:58;;;;;;;21.90;4.70;;;;;;;11.81;97.13;99077.25;105784;1264;73369;-79
2023/04/20 09:12:26;;;;;;;21.00;6.70;;;;;;;11.88;96.50;99080.73;106043;1262;68370;-79
2023/04/20 09:14:53;;;;;;;23.60;6.20;;;;;;;11.76;96.92;99086.19;105981;1262;72225;-81
2023/04/20 09:17:33;;;;;;;21.60;6.70;;;;;;;11.84;97.16;99090.33;106021;1258;61905;-83
2023/04/20 09:20:00;;;;;;;19.80;6.50;;;;;;;12.02;95.98;99084.95;106424;1259;61366;-82
2023/04/20 09:22:31;;;;;;;16.00;4.60;;;;;;;12.00;97.39;99087.11;106273;1261;73928;-81
2023/04/20 09:24:58;;;;;;;27.40;6.20;;;;;;;12.01;98.47;99083.73;105995;1261;67903;-82
2023/04/20 09:27:25;;;;;;;16.90;4.60;;;;;;;11.91;99.94;99085.25;106061;1262;73504;-80
2023/04/20 09:29:59;;;;;;;20.20;6.00;;;;;;;11.74;100.00;99089.84;106238;1262;60926;-83
2023/04/20 09:32:27;;;;;;;15.50;4.60;;;;;;;11.76;100.00;99076.23;106114;1261;61240;-83
2023/04/20 09:34:55;;;;;;;24.10;8.20;;;;;;;11.80;100.00;99087.95;106242;1258;71323;-81
2023/04/20 09:37:22;;;;;;;21.80;5.90;;;;;;;11.60;100.00;99090.30;106356;1262;68551;-81
2023/04/20 09:39:49;;;;;;;23.20;7.40;;;;;;;11.64;100.00;99090.71;106395;1257;70817;-86
2023/04/20 09:42:16;;;;;;;28.00;7.00;;;;;;;11.59;100.00;99084.86;106234;1260;63051;-79
2023/04/20 09:44:43;;;;;;;21.90;5.60;;;;;;;11.56;100.00;99086.28;106065;1272;59659;-81
2023/04/20 09:47:18;;;;;;;25.90;5.80;;;;;;;11.57;100.00;99084.66;106134;1263;73914;-84
2023/04/20 09:49:46;;;;;;;10.90;4.10;;;;;;;11.66;99.31;99081.73;106157;1257;69223;-81
2023/04/20 09:52:19;;;;;;;28.70;6.10;;;;;;;11.59;99.35;99085.02;106286;1262;73579;-82
2023/04/20 09:54:47;;;;;;;33.60;8.60;;;;;;;11.72;99.29;99087.58;106057;1259;60899;-82
2023/04/20 09:57:14;;;;;;;19.20;5.50;;;;;;;11.62;97.57;99080.57;106145;1258;60132;-81
2023/04/20 09:59:45;;;;;;;29.40;6.80;;;;;;;11.84;93.52;99086.45;106111;1262;73162;-81
2023/04/20 10:02:12;;;;;;;34.10;6.50;;;;;;;11.79;92.72;99081.88;105980;1258;69635;-81
2023/04/20 10:04:55;;;;;;;27.60;6.40;;;;;;;11.72;94.72;99085.98;106115;1262;73801;-81
2023/04/20 10:07:26;;;;;;;22.60;5.30;;;;;;;11.76;92.71;99079.77;106210;1261;61745;-82
2023/04/20 10:10:10;;;;;;;19.80;7.20;;;;;;;11.70;92.05;99089.20;106136;1256;60398;-81
2023/04/20 10:12:50;;;;;;;19.00;5.40;;;;;;;11.63;91.32;99090.57;106122;1261;74249;-82
2023/04/20 10:15:17;;;;;;;16.70;5.40;;;;;;;11.62;91.37;99089.42;105954;1260;69833;-83
2023/04/20 10:17:44;;;;;;;23.90;5.70;;;;;;;11.67;91.33;99089.16;106057;1258;73262;-83
2023/04/20 10:20:19;;;;;;;32.30;8.80;;;;;;;11.59;89.15;99074.06;105863;1258;61063;-81
2023/04/20 10:22:46;;;;;;;26.80;7.20;;;;;;;11.71;89.34;99084.05;106244;1258;59718;-82
2023/04/20 10:25:16;;;;;;;22.70;5.80;;;;;;;11.86;88.08;99086.65;105877;1263;71809;-81
2023/04/20 10:27:53;;;;;;;15.80;4.70;;;;;;;12.03;85.50;99080.27;106030;1262;69884;-80
2023/04/20 10:30:20;;;;;;;18.30;5.30;;;;;;;11.86;85.73;99082.73;106139;1258;73474;-78
2023/04/20 10:32:47;;;;;;;19.70;5.60;;;;;;;11.87;86.96;99078.20;106316;1258;62919;-80
2023/04/20 10:35:16;;;;;;;13.70;4.50;;;;;;;11.84;88.38;99079.98;105979;1263;61329;-81
2023/04/20 10:37:48;;;;;;;14.40;4.20;;;;;;;11.83;90.28;99084.89;105924;1258;72742;-82
2023/04/20 10:40:16;;;;;;;16.40;4.10;;;;;;;11.72;94.43;99086.45;106137;1260;67159;-82
2023/04/20 10:42:43;;;;;;;14.80;5.70;;;;;;;11.62;98.13;99086.75;106353;1257;73720;-81
2023/04/20 10:45:11;;;;;;;15.30;6.20;;;;;;;11.51;100.00;99083.44;106166;1261;61616;-79
2023/04/20 10:47:39;;;;;;;15.90;5.10;;;;;;;11.72;100.00;99088.34;106011;1258;60819;-80
2023/04/20 10:50:06;;;;;;;20.30;5.70;;;;;;;11.28;100.00;99086.73;106092;1258;72243;-83
2023/04/20 10:52:37;;;;;;;13.30;4.70;;;;;;;11.18;100.00;99091.20;106137;1260;68651;-80
2023/04/20 10:55:07;;;;;;;13.50;4.50;;;;;;;11.02;100.00;99091.63;106182;1258;72499;-83
2023/04/20 10:57:35;;;;;;;21.30;6.00;;;;;;;11.06;100.00;99099.10;106346;1263;62051;-84
2023/04/20 11:00:15;;;;;;;14.30;5.10;;;;;;;11.12;100.00;99090.98;106625;1261;59688;-79
2023/04/20 11:02:47;;;;;;;12.70;4.60;;;;;;;11.10;100.00;99094.04;106358;1257;73913;-83
2023/04/20 11:05:16;;;;;;;21.30;6.70;;;;;;;11.09;100.00;99093.67;106378;1260;67864;-84
2023/04/20 11:07:51;;;;;;;17.70;5.20;;;;;;;10.96;100.00;99095.54;106358;1262;72699;-83
2023/04/20 11:10:19;;;;;;;19.40;5.60;;;;;;;11.08;100.00;99086.68;106734;1257;61232;-86
2023/04/20 11:13:06;;;;;;;18.20;6.00;;;;;;;10.90;100.00;99089.45;106089;1258;61407;-80
2023/04/20 11:15:33;;;;;;;22.30;7.80;;;;;;;10.97;100.00;99093.92;106443;1260;74122;-82
2023/04/20 11:18:07;;;;;;;24.40;5.60;;;;;;;10.97;100.00;99101.88;105994;1257;69625;-84
2023/04/20 11:20:35;;;;;;;28.10;6.70;;;;;;;10.97;100.00;99102.36;106465;1257;71666;-84
2023/04/20 11:23:03;;;;;;;14.60;4.90;;;;;;;10.88;100.00;99091.13;106145;1257;62918;-82
2023/04/20 11:25:31;;;;;;;20.10;5.80;;;;;;;10.76;100.00;99094.21;106077;1257;60096;-80
2023/04/20 11:28:07;;;;;;;20.30;6.60;;;;;;;10.87;100.00;99097.14;106067;1256;74143;-78
2023/04/20 11:30:41;;;;;;;17.20;6.30;;;;;;;11.18;100.00;99107.75;106420;1260;70118;-78
2023/04/20 11:33:08;;;;;;;21.30;7.10;;;;;;;11.13;100.00;99104.03;105949;1257;73321;-84
2023/04/20 11:35:37;;;;;;;23.90;6.60;;;;;;;11.23;100.00;99098.83;105689;1258;62916;-80